Terminal Aerodrome Forecast
Issued by NWS Blacksburg, VA

Current Version | Previous Version | Graphics & Text | Print | Product List | Glossary On
Versions: 1 2 3 4 5 6 7 8 9 10 11 12 13 14 15 16 17 18 19 20 21 22 23 24 25 26 27 28
000
FTUS41 KRNK 240704 AAA
TAFBLF
TAF AMD
KBLF 240704Z 2407/2506 25007KT 4SM BR SCT002
      TEMPO 2407/2411 1SM BR BKN002
     FM241300 30004KT P6SM BKN250=

USA.gov is the U.S. government's official web portal to all federal, state and local government web resources and services.